• Join FlightAware (Why Join?)
  • Login
  • US Flag 
04:49PM EDT


 

Airport Tracker/Info


-or-


 

Live Flight TrackerFlight Track Log ✈ SKW5535 ✈ 14-Aug-2013 ✈ KMSO - KDEN

Flight Track Log - Related Links

Times and Time Zones

All times are in EDT time to prevent confusion due to time zone crossing. See the SKW5535 flight status page for this flight to view local times or setup timezone preferences in your user account.

Time Position Orientation Groundspeed Altitude Reporting Facility
EDT Latitude Longitude Course Direction KTS MPH feet Rate Location/Type
02:58PM 46.9083 -114.1778 234° Southwest 218 251 6,600  Level Salt Lake Center
02:59PM 46.8539 -114.1175 143° Southeast 238 274 9,100 2,220 Climbing Salt Lake Center
03:00PM 46.8094 -114.0403 130° Southeast 251 289 11,300 1,800 Climbing Salt Lake Center
03:01PM 46.7544 -113.9467 131° Southeast 283 326 12,900 1,380 Climbing Salt Lake Center
03:02PM 46.6950 -113.8481 131° Southeast 322 371 14,200 1,380 Climbing Salt Lake Center
03:03PM 46.6261 -113.7344 131° Southeast 346 398 15,800 1,500 Climbing Salt Lake Center
03:04PM 46.5586 -113.6233 131° Southeast 365 420 17,300 1,380 Climbing Salt Lake Center
03:05PM 46.4908 -113.5119 131° Southeast 369 425 18,700 1,260 Climbing Salt Lake Center
03:06PM 46.4172 -113.3875 131° Southeast 378 435 20,000 1,140 Climbing Salt Lake Center
03:07PM 46.3436 -113.2714 133° Southeast 390 449 21,100 1,020 Climbing Salt Lake Center
03:08PM 46.2728 -113.1578 132° Southeast 397 457 22,200 960 Climbing Salt Lake Center
03:09PM 46.1981 -113.0347 131° Southeast 406 467 23,100 960 Climbing Salt Lake Center
03:10PM 46.1058 -112.8878 132° Southeast 411 473 24,300 960 Climbing Salt Lake Center
03:11PM 46.0297 -112.7619 131° Southeast 416 479 25,200 780 Climbing Salt Lake Center
03:12PM 45.9506 -112.6356 132° Southeast 426 490 26,000 720 Climbing Salt Lake Center
03:13PM 45.8700 -112.5081 132° Southeast 430 495 26,700 720 Climbing Salt Lake Center
03:14PM 45.7892 -112.3786 132° Southeast 436 502 27,500 600 Climbing Salt Lake Center
03:15PM 45.7081 -112.2514 132° Southeast 436 502 28,000 600 Climbing Salt Lake Center
03:16PM 45.6081 -112.0947 132° Southeast 445 512 28,800 720 Climbing Salt Lake Center
03:17PM 45.5256 -111.9639 132° Southeast 447 514 29,500 720 Climbing Salt Lake Center
03:18PM 45.4431 -111.8356 132° Southeast 444 511 30,300 720 Climbing Salt Lake Center
03:19PM 45.3606 -111.7069 132° Southeast 442 509 31,000 660 Climbing Salt Lake Center
03:20PM 45.2789 -111.5803 132° Southeast 440 506 31,700 660 Climbing Salt Lake Center
03:21PM 45.1800 -111.4281 133° Southeast 439 505 32,400 600 Climbing Salt Lake Center
03:22PM 45.1042 -111.3119 133° Southeast 437 503 33,000 240 Climbing Salt Lake Center
03:23PM 45.0094 -111.1689 133° Southeast 442 509 33,000 60 Level Salt Lake Center
03:24PM 44.9264 -111.0419 133° Southeast 453 521 33,200 360 Climbing Salt Lake Center
03:26PM 44.8283 -110.8958 133° Southeast 456 525 33,800 480 Climbing Salt Lake Center
03:27PM 44.7458 -110.7711 133° Southeast 452 520 34,300 480 Climbing Salt Lake Center
03:28PM 44.6672 -110.6436 131° Southeast 450 518 34,800 300 Climbing Salt Lake Center
03:29PM 44.5914 -110.4806 123° Southeast 446 513 35,000 60 Climbing Salt Lake Center
03:30PM 44.5253 -110.3383 123° Southeast 452 520 35,000  Level Salt Lake Center
03:31PM 44.4464 -110.1719 124° Southeast 456 525 35,000  Level Salt Lake Center
03:32PM 44.3797 -110.0272 123° Southeast 460 529 35,000  Level Salt Lake Center
03:33PM 44.3036 -109.8572 122° Southeast 462 532 35,000  Level Salt Lake Center
03:34PM 44.2397 -109.7108 121° Southeast 462 532 35,000  Level Salt Lake Center
03:35PM 44.1628 -109.5458 123° Southeast 457 526 35,000  Level Salt Lake Center
03:36PM 44.0986 -109.3914 120° Southeast 455 524 35,000  Level Salt Lake Center
03:37PM 44.0328 -109.2422 122° Southeast 455 524 35,000  Level Salt Lake Center
03:38PM 43.9653 -109.0936 122° Southeast 457 526 35,000  Level Salt Lake Center
03:39PM 43.8886 -108.9531 127° Southeast 458 527 35,000  Level Salt Lake Center
03:40PM 43.8103 -108.8136 128° Southeast 460 529 35,000  Level Salt Lake Center
03:41PM 43.6994 -108.6694 137° Southeast 460 529 35,000  Level Salt Lake Center
03:42PM 43.6011 -108.5586 141° Southeast 459 528 35,000  Level Salt Lake Center
03:43PM 43.5022 -108.4461 140° Southeast 462 532 35,000  Level Salt Lake Center
03:44PM 43.4031 -108.3367 141° Southeast 460 529 35,000  Level Salt Lake Center
03:45PM 43.3033 -108.2244 141° Southeast 463 533 35,000  Level Salt Lake Center
03:46PM 43.1828 -108.0919 141° Southeast 465 535 35,000  Level Salt Lake Center
03:47PM 43.0844 -107.9792 140° Southeast 463 533 35,000  Level Salt Lake Center
03:48PM 42.9828 -107.8694 142° Southeast 468 539 35,000  Level Salt Lake Center
03:49PM 42.8758 -107.7519 141° Southeast 465 535 35,000  Level Salt Lake Center
03:50PM 42.7806 -107.6456 141° Southeast 462 532 35,000  Level Salt Lake Center
03:51PM 42.6681 -107.5225 141° Southeast 465 535 35,000  Level Salt Lake Center
03:52PM 42.5714 -107.4183 142° Southeast 462 532 35,000  Level Salt Lake Center
03:53PM 42.4575 -107.2972 142° Southeast 464 534 35,100  Climbing Salt Lake Center
03:54PM 42.3603 -107.1925 141° Southeast 467 537 35,000 -60 Descending Salt Lake Center
03:55PM 42.2942 -107.1217 142° Southeast 470 541 35,000  Level Denver Center
03:56PM 42.1778 -107.0014 143° Southeast 470 541 35,000  Level Denver Center
03:57PM 42.0733 -106.9106 147° Southeast 466 536 35,000  Level Denver Center
03:58PM 41.9517 -106.8031 147° Southeast 468 539 35,000  Level Denver Center
03:59PM 41.8489 -106.7114 146° Southeast 465 535 35,000  Level Denver Center
04:00PM 41.7264 -106.6058 147° Southeast 467 537 35,000  Level Denver Center
04:01PM 41.6228 -106.5156 147° Southeast 466 536 35,000  Level Denver Center
04:02PM 41.5206 -106.4256 147° Southeast 464 534 35,000  Level Denver Center
04:03PM 41.3994 -106.3222 147° Southeast 462 532 35,000  Level Denver Center
04:04PM 41.2769 -106.2164 147° Southeast 464 534 35,000  Level Denver Center
04:06PM 41.1769 -106.1292 147° Southeast 461 531 35,000  Level Denver Center
04:07PM 41.0553 -106.0272 148° Southeast 463 533 35,000 -540 Level Denver Center
04:08PM 40.9517 -105.9397 147° Southeast 465 535 34,000 -1,800 Descending Denver Center
04:09PM 40.8486 -105.8383 143° Southeast 463 533 31,300 -2,820 Descending Denver Center
04:10PM 40.7469 -105.7342 142° Southeast 462 532 28,200 -3,300 Descending Denver Center
04:11PM 40.6272 -105.6164 143° Southeast 451 519 24,600 -3,240 Descending Denver Center
04:12PM 40.5225 -105.5419 152° Southeast 432 497 21,600 -2,700 Descending Denver Center
04:13PM 40.4178 -105.4761 154° Southeast 420 483 19,100 -1,440 Descending Denver Center
04:14PM 40.3311 -105.3953 145° Southeast 351 404 18,700 -660 Descending Denver Center
04:15PM 40.2625 -105.2889 130° Southeast 358 412 17,800 -1,080 Descending Denver Center
04:16PM 40.1994 -105.1906 130° Southeast 353 406 16,500 -1,200 Descending Denver Center
04:17PM 40.1339 -105.0886 130° Southeast 337 388 15,400 -1,080 Descending Denver Center
04:18PM 40.0733 -104.9947 130° Southeast 339 390 14,300 -1,020 Descending Denver Center
04:19PM 40.0147 -104.9031 130° Southeast 330 380 13,400 -1,020 Descending Denver Center
04:20PM 39.9494 -104.8139 134° Southeast 322 371 12,200 -1,140 Descending Denver Center
04:21PM 39.8786 -104.8075 176° South 308 354 11,100 -540 Descending Denver Center
04:22PM 39.7850 -104.8106 181° South 268 308 11,100 -300 Level Denver Center
04:23PM 39.7094 -104.8108 180° South 256 295 10,600 -780 Descending Denver Center
04:24PM 39.6658 -104.7608 139° Southeast 240 276 9,500 -1,020 Descending Denver Center
04:25PM 39.7181 -104.7144 34° Northeast 208 239 8,500 -1,020 Descending Denver Center
04:26PM 39.7706 -104.6908 19° North 197 227 7,400 -1,140 Descending Denver Center
04:27PM 39.8228 -104.6881 North 176 203 6,200 -960 Descending Denver Center
04:28PM 39.8644 -104.6875 North 156 180 5,500 -720 Descending Denver Center